sensor_id;sensor_type;location;lat;lon;timestamp;P1;durP1;ratioP1;P2;durP2;ratioP2
78542;SDS011;67836;52.430;14.446;2023-05-10T00:03:59;11.77;;;3.90;;
78542;SDS011;67836;52.430;14.446;2023-05-10T00:06:43;9.75;;;4.07;;
78542;SDS011;67836;52.430;14.446;2023-05-10T00:09:26;8.95;;;4.38;;
78542;SDS011;67836;52.430;14.446;2023-05-10T00:12:10;8.23;;;3.80;;
78542;SDS011;67836;52.430;14.446;2023-05-10T00:14:54;9.75;;;4.75;;
78542;SDS011;67836;52.430;14.446;2023-05-10T00:20:22;6.53;;;3.95;;
78542;SDS011;67836;52.430;14.446;2023-05-10T00:23:06;10.07;;;4.07;;
78542;SDS011;67836;52.430;14.446;2023-05-10T00:25:50;7.07;;;3.70;;
78542;SDS011;67836;52.430;14.446;2023-05-10T00:28:34;9.70;;;4.32;;
78542;SDS011;67836;52.430;14.446;2023-05-10T00:31:18;7.75;;;3.85;;
78542;SDS011;67836;52.430;14.446;2023-05-10T00:34:02;8.25;;;4.50;;
78542;SDS011;67836;52.430;14.446;2023-05-10T00:36:46;9.55;;;4.47;;
78542;SDS011;67836;52.430;14.446;2023-05-10T00:42:13;9.27;;;5.03;;
78542;SDS011;67836;52.430;14.446;2023-05-10T00:44:58;7.78;;;3.80;;
78542;SDS011;67836;52.430;14.446;2023-05-10T00:47:42;9.98;;;4.07;;
78542;SDS011;67836;52.430;14.446;2023-05-10T00:50:26;6.60;;;3.95;;
78542;SDS011;67836;52.430;14.446;2023-05-10T00:53:10;9.80;;;5.10;;
78542;SDS011;67836;52.430;14.446;2023-05-10T00:55:56;7.55;;;4.20;;
78542;SDS011;67836;52.430;14.446;2023-05-10T00:58:40;7.65;;;4.65;;
78542;SDS011;67836;52.430;14.446;2023-05-10T01:01:24;6.82;;;4.30;;
78542;SDS011;67836;52.430;14.446;2023-05-10T01:04:09;8.15;;;4.22;;
78542;SDS011;67836;52.430;14.446;2023-05-10T01:06:55;8.75;;;4.43;;
78542;SDS011;67836;52.430;14.446;2023-05-10T01:09:39;10.32;;;4.43;;
78542;SDS011;67836;52.430;14.446;2023-05-10T01:12:24;6.95;;;3.15;;
78542;SDS011;67836;52.430;14.446;2023-05-10T01:15:08;9.43;;;4.47;;
78542;SDS011;67836;52.430;14.446;2023-05-10T01:17:54;9.35;;;5.18;;
78542;SDS011;67836;52.430;14.446;2023-05-10T01:20:40;11.90;;;5.07;;
78542;SDS011;67836;52.430;14.446;2023-05-10T01:23:30;8.90;;;4.78;;
78542;SDS011;67836;52.430;14.446;2023-05-10T01:32:52;10.30;;;4.75;;
78542;SDS011;67836;52.430;14.446;2023-05-10T01:38:49;7.05;;;3.60;;
78542;SDS011;67836;52.430;14.446;2023-05-10T01:47:54;9.70;;;4.53;;
78542;SDS011;67836;52.430;14.446;2023-05-10T01:50:46;8.32;;;3.95;;
78542;SDS011;67836;52.430;14.446;2023-05-10T01:53:31;8.70;;;4.80;;
78542;SDS011;67836;52.430;14.446;2023-05-10T01:56:16;10.05;;;4.78;;
78542;SDS011;67836;52.430;14.446;2023-05-10T01:59:04;7.38;;;3.45;;
78542;SDS011;67836;52.430;14.446;2023-05-10T02:01:50;9.45;;;4.13;;
78542;SDS011;67836;52.430;14.446;2023-05-10T02:04:35;7.82;;;4.65;;
78542;SDS011;67836;52.430;14.446;2023-05-10T02:07:21;7.60;;;3.47;;
78542;SDS011;67836;52.430;14.446;2023-05-10T02:10:07;7.75;;;4.57;;
78542;SDS011;67836;52.430;14.446;2023-05-10T02:12:51;7.68;;;3.67;;
78542;SDS011;67836;52.430;14.446;2023-05-10T02:15:37;9.07;;;4.47;;
78542;SDS011;67836;52.430;14.446;2023-05-10T02:18:22;8.18;;;4.05;;
78542;SDS011;67836;52.430;14.446;2023-05-10T02:21:07;8.40;;;3.38;;
78542;SDS011;67836;52.430;14.446;2023-05-10T02:23:52;7.10;;;3.80;;
78542;SDS011;67836;52.430;14.446;2023-05-10T02:26:37;8.38;;;3.90;;
78542;SDS011;67836;52.430;14.446;2023-05-10T02:29:22;9.40;;;4.43;;
78542;SDS011;67836;52.430;14.446;2023-05-10T02:32:07;6.57;;;4.30;;
78542;SDS011;67836;52.430;14.446;2023-05-10T02:34:54;6.82;;;4.22;;
78542;SDS011;67836;52.430;14.446;2023-05-10T02:37:38;5.70;;;3.17;;
78542;SDS011;67836;52.430;14.446;2023-05-10T02:40:23;8.20;;;3.97;;
78542;SDS011;67836;52.430;14.446;2023-05-10T02:43:09;8.27;;;3.97;;
78542;SDS011;67836;52.430;14.446;2023-05-10T02:45:56;10.75;;;5.25;;
78542;SDS011;67836;52.430;14.446;2023-05-10T02:48:40;10.75;;;4.32;;
78542;SDS011;67836;52.430;14.446;2023-05-10T02:51:25;7.82;;;4.15;;
78542;SDS011;67836;52.430;14.446;2023-05-10T02:54:24;7.13;;;4.03;;
78542;SDS011;67836;52.430;14.446;2023-05-10T02:57:15;7.10;;;3.95;;
78542;SDS011;67836;52.430;14.446;2023-05-10T03:00:02;9.88;;;4.45;;
78542;SDS011;67836;52.430;14.446;2023-05-10T03:02:47;6.70;;;3.95;;
78542;SDS011;67836;52.430;14.446;2023-05-10T03:05:31;11.68;;;4.60;;
78542;SDS011;67836;52.430;14.446;2023-05-10T03:08:15;5.78;;;3.50;;
78542;SDS011;67836;52.430;14.446;2023-05-10T03:16:46;10.60;;;4.85;;
78542;SDS011;67836;52.430;14.446;2023-05-10T03:19:43;7.93;;;4.78;;
78542;SDS011;67836;52.430;14.446;2023-05-10T03:22:36;8.05;;;4.15;;
78542;SDS011;67836;52.430;14.446;2023-05-10T03:25:22;8.88;;;5.28;;
78542;SDS011;67836;52.430;14.446;2023-05-10T03:28:06;6.20;;;3.72;;
78542;SDS011;67836;52.430;14.446;2023-05-10T03:30:51;6.07;;;3.78;;
78542;SDS011;67836;52.430;14.446;2023-05-10T03:33:36;7.78;;;4.35;;
78542;SDS011;67836;52.430;14.446;2023-05-10T03:36:29;7.50;;;4.25;;
78542;SDS011;67836;52.430;14.446;2023-05-10T03:39:13;5.65;;;3.10;;
78542;SDS011;67836;52.430;14.446;2023-05-10T03:41:58;20.58;;;4.13;;
78542;SDS011;67836;52.430;14.446;2023-05-10T03:44:42;8.35;;;3.70;;
78542;SDS011;67836;52.430;14.446;2023-05-10T03:47:26;7.68;;;3.90;;
78542;SDS011;67836;52.430;14.446;2023-05-10T03:50:10;6.70;;;3.65;;
78542;SDS011;67836;52.430;14.446;2023-05-10T03:52:54;7.00;;;3.80;;
78542;SDS011;67836;52.430;14.446;2023-05-10T03:55:38;6.97;;;3.42;;
78542;SDS011;67836;52.430;14.446;2023-05-10T03:58:22;8.13;;;3.90;;
78542;SDS011;67836;52.430;14.446;2023-05-10T04:01:06;6.32;;;3.08;;
78542;SDS011;67836;52.430;14.446;2023-05-10T04:03:50;8.10;;;4.63;;
78542;SDS011;67836;52.430;14.446;2023-05-10T04:06:34;8.32;;;3.55;;
78542;SDS011;67836;52.430;14.446;2023-05-10T04:09:18;9.02;;;4.15;;
78542;SDS011;67836;52.430;14.446;2023-05-10T04:12:02;6.95;;;4.00;;
78542;SDS011;67836;52.430;14.446;2023-05-10T04:14:46;8.18;;;4.43;;
78542;SDS011;67836;52.430;14.446;2023-05-10T04:17:30;7.95;;;4.45;;
78542;SDS011;67836;52.430;14.446;2023-05-10T04:20:14;8.60;;;4.65;;
78542;SDS011;67836;52.430;14.446;2023-05-10T04:22:58;6.47;;;3.40;;
78542;SDS011;67836;52.430;14.446;2023-05-10T04:25:42;6.78;;;4.13;;
78542;SDS011;67836;52.430;14.446;2023-05-10T04:28:26;7.50;;;3.63;;
78542;SDS011;67836;52.430;14.446;2023-05-10T04:31:10;6.00;;;3.58;;
78542;SDS011;67836;52.430;14.446;2023-05-10T04:33:54;6.88;;;3.60;;
78542;SDS011;67836;52.430;14.446;2023-05-10T04:36:38;7.13;;;3.83;;
78542;SDS011;67836;52.430;14.446;2023-05-10T04:39:22;6.30;;;2.65;;
78542;SDS011;67836;52.430;14.446;2023-05-10T04:42:06;10.52;;;3.42;;
78542;SDS011;67836;52.430;14.446;2023-05-10T04:44:50;6.55;;;3.13;;
78542;SDS011;67836;52.430;14.446;2023-05-10T04:47:35;7.60;;;3.00;;
78542;SDS011;67836;52.430;14.446;2023-05-10T04:50:20;5.93;;;3.20;;
78542;SDS011;67836;52.430;14.446;2023-05-10T04:53:04;6.72;;;3.22;;
78542;SDS011;67836;52.430;14.446;2023-05-10T04:55:48;6.35;;;2.85;;
78542;SDS011;67836;52.430;14.446;2023-05-10T04:58:32;4.45;;;2.60;;
78542;SDS011;67836;52.430;14.446;2023-05-10T05:01:17;6.43;;;3.35;;
78542;SDS011;67836;52.430;14.446;2023-05-10T05:04:01;6.57;;;3.47;;
78542;SDS011;67836;52.430;14.446;2023-05-10T05:06:45;4.95;;;3.20;;
78542;SDS011;67836;52.430;14.446;2023-05-10T05:09:28;5.10;;;2.65;;
78542;SDS011;67836;52.430;14.446;2023-05-10T05:12:12;6.65;;;2.85;;
78542;SDS011;67836;52.430;14.446;2023-05-10T05:14:57;6.85;;;3.17;;
78542;SDS011;67836;52.430;14.446;2023-05-10T05:17:41;5.75;;;3.20;;
78542;SDS011;67836;52.430;14.446;2023-05-10T05:20:26;5.95;;;2.95;;
78542;SDS011;67836;52.430;14.446;2023-05-10T05:23:10;5.28;;;2.58;;
78542;SDS011;67836;52.430;14.446;2023-05-10T05:25:54;6.03;;;2.42;;
78542;SDS011;67836;52.430;14.446;2023-05-10T05:28:38;5.72;;;3.20;;
78542;SDS011;67836;52.430;14.446;2023-05-10T05:31:22;7.88;;;3.17;;
78542;SDS011;67836;52.430;14.446;2023-05-10T05:34:06;9.88;;;3.60;;
78542;SDS011;67836;52.430;14.446;2023-05-10T05:36:50;4.57;;;2.35;;
78542;SDS011;67836;52.430;14.446;2023-05-10T05:39:35;6.57;;;3.30;;
78542;SDS011;67836;52.430;14.446;2023-05-10T05:42:19;5.10;;;2.53;;
78542;SDS011;67836;52.430;14.446;2023-05-10T05:45:03;7.70;;;4.03;;
78542;SDS011;67836;52.430;14.446;2023-05-10T05:47:48;6.28;;;2.85;;
78542;SDS011;67836;52.430;14.446;2023-05-10T05:50:32;3.92;;;2.00;;
78542;SDS011;67836;52.430;14.446;2023-05-10T05:53:16;7.30;;;2.97;;
78542;SDS011;67836;52.430;14.446;2023-05-10T05:56:00;5.30;;;2.97;;
78542;SDS011;67836;52.430;14.446;2023-05-10T05:58:44;7.00;;;3.10;;
78542;SDS011;67836;52.430;14.446;2023-05-10T06:01:28;6.03;;;2.38;;
78542;SDS011;67836;52.430;14.446;2023-05-10T06:04:13;6.63;;;3.03;;
78542;SDS011;67836;52.430;14.446;2023-05-10T06:06:57;5.18;;;2.72;;
78542;SDS011;67836;52.430;14.446;2023-05-10T06:09:41;6.28;;;2.83;;
78542;SDS011;67836;52.430;14.446;2023-05-10T06:12:25;4.97;;;2.53;;
78542;SDS011;67836;52.430;14.446;2023-05-10T06:15:09;4.18;;;2.20;;
78542;SDS011;67836;52.430;14.446;2023-05-10T06:17:54;6.35;;;2.83;;
78542;SDS011;67836;52.430;14.446;2023-05-10T06:20:38;5.25;;;2.38;;
78542;SDS011;67836;52.430;14.446;2023-05-10T06:23:22;7.53;;;2.92;;
78542;SDS011;67836;52.430;14.446;2023-05-10T06:26:06;5.03;;;2.38;;
78542;SDS011;67836;52.430;14.446;2023-05-10T06:28:50;7.45;;;3.70;;
78542;SDS011;67836;52.430;14.446;2023-05-10T06:31:34;6.60;;;2.72;;
78542;SDS011;67836;52.430;14.446;2023-05-10T06:34:18;4.40;;;2.03;;
78542;SDS011;67836;52.430;14.446;2023-05-10T06:37:02;6.78;;;2.95;;
78542;SDS011;67836;52.430;14.446;2023-05-10T06:39:47;6.10;;;3.05;;
78542;SDS011;67836;52.430;14.446;2023-05-10T06:42:31;7.63;;;3.20;;
78542;SDS011;67836;52.430;14.446;2023-05-10T06:45:15;5.88;;;2.53;;
78542;SDS011;67836;52.430;14.446;2023-05-10T06:48:00;6.30;;;2.90;;
78542;SDS011;67836;52.430;14.446;2023-05-10T06:50:44;5.57;;;2.80;;
78542;SDS011;67836;52.430;14.446;2023-05-10T06:53:28;7.15;;;3.20;;
78542;SDS011;67836;52.430;14.446;2023-05-10T06:56:12;4.53;;;2.28;;
78542;SDS011;67836;52.430;14.446;2023-05-10T06:58:56;5.43;;;2.42;;
78542;SDS011;67836;52.430;14.446;2023-05-10T07:01:43;4.50;;;2.40;;
78542;SDS011;67836;52.430;14.446;2023-05-10T07:04:28;5.38;;;2.70;;
78542;SDS011;67836;52.430;14.446;2023-05-10T07:07:12;5.65;;;2.55;;
78542;SDS011;67836;52.430;14.446;2023-05-10T07:09:57;5.30;;;2.42;;
78542;SDS011;67836;52.430;14.446;2023-05-10T07:12:41;4.28;;;1.88;;
78542;SDS011;67836;52.430;14.446;2023-05-10T07:15:25;5.45;;;2.35;;
78542;SDS011;67836;52.430;14.446;2023-05-10T07:18:10;6.85;;;2.65;;
78542;SDS011;67836;52.430;14.446;2023-05-10T07:20:54;7.50;;;2.47;;
78542;SDS011;67836;52.430;14.446;2023-05-10T07:23:38;6.28;;;3.03;;
78542;SDS011;67836;52.430;14.446;2023-05-10T07:26:22;5.85;;;2.35;;
78542;SDS011;67836;52.430;14.446;2023-05-10T07:29:06;4.18;;;2.05;;
78542;SDS011;67836;52.430;14.446;2023-05-10T07:31:50;5.13;;;2.53;;
78542;SDS011;67836;52.430;14.446;2023-05-10T07:34:35;4.22;;;2.33;;
78542;SDS011;67836;52.430;14.446;2023-05-10T07:37:19;4.35;;;1.98;;
78542;SDS011;67836;52.430;14.446;2023-05-10T07:40:03;5.32;;;2.75;;
78542;SDS011;67836;52.430;14.446;2023-05-10T07:42:48;5.70;;;2.58;;
78542;SDS011;67836;52.430;14.446;2023-05-10T07:45:32;4.38;;;2.10;;
78542;SDS011;67836;52.430;14.446;2023-05-10T07:48:16;5.90;;;2.00;;
78542;SDS011;67836;52.430;14.446;2023-05-10T07:51:00;4.82;;;2.05;;
78542;SDS011;67836;52.430;14.446;2023-05-10T07:53:44;5.18;;;2.10;;
78542;SDS011;67836;52.430;14.446;2023-05-10T07:56:29;3.42;;;1.98;;
78542;SDS011;67836;52.430;14.446;2023-05-10T07:59:16;6.07;;;2.33;;
78542;SDS011;67836;52.430;14.446;2023-05-10T08:02:00;4.40;;;1.98;;
78542;SDS011;67836;52.430;14.446;2023-05-10T08:04:44;3.90;;;1.85;;
78542;SDS011;67836;52.430;14.446;2023-05-10T08:07:29;6.32;;;2.50;;
78542;SDS011;67836;52.430;14.446;2023-05-10T08:10:13;5.45;;;2.50;;
78542;SDS011;67836;52.430;14.446;2023-05-10T08:12:58;4.57;;;2.10;;
78542;SDS011;67836;52.430;14.446;2023-05-10T08:15:42;5.15;;;2.30;;
78542;SDS011;67836;52.430;14.446;2023-05-10T08:18:26;4.13;;;2.13;;
78542;SDS011;67836;52.430;14.446;2023-05-10T08:21:10;3.38;;;1.60;;
78542;SDS011;67836;52.430;14.446;2023-05-10T08:23:54;4.85;;;1.98;;
78542;SDS011;67836;52.430;14.446;2023-05-10T08:26:39;3.97;;;1.80;;
78542;SDS011;67836;52.430;14.446;2023-05-10T08:29:23;5.25;;;2.13;;
78542;SDS011;67836;52.430;14.446;2023-05-10T08:32:07;4.43;;;1.85;;
78542;SDS011;67836;52.430;14.446;2023-05-10T08:34:51;3.58;;;1.55;;
78542;SDS011;67836;52.430;14.446;2023-05-10T08:37:35;3.55;;;1.67;;
78542;SDS011;67836;52.430;14.446;2023-05-10T08:40:20;3.53;;;1.65;;
78542;SDS011;67836;52.430;14.446;2023-05-10T08:43:04;3.50;;;1.90;;
78542;SDS011;67836;52.430;14.446;2023-05-10T08:45:50;4.38;;;1.85;;
78542;SDS011;67836;52.430;14.446;2023-05-10T08:48:35;4.72;;;1.90;;
78542;SDS011;67836;52.430;14.446;2023-05-10T08:51:24;3.13;;;1.60;;
78542;SDS011;67836;52.430;14.446;2023-05-10T08:54:10;4.20;;;1.85;;
78542;SDS011;67836;52.430;14.446;2023-05-10T08:56:54;3.63;;;2.28;;
78542;SDS011;67836;52.430;14.446;2023-05-10T08:59:39;3.95;;;1.80;;
78542;SDS011;67836;52.430;14.446;2023-05-10T09:02:23;3.55;;;1.52;;
78542;SDS011;67836;52.430;14.446;2023-05-10T09:05:07;3.53;;;1.65;;
78542;SDS011;67836;52.430;14.446;2023-05-10T09:07:51;2.95;;;1.45;;
78542;SDS011;67836;52.430;14.446;2023-05-10T09:10:35;4.68;;;2.25;;
78542;SDS011;67836;52.430;14.446;2023-05-10T09:13:21;5.75;;;2.10;;
78542;SDS011;67836;52.430;14.446;2023-05-10T09:16:06;3.22;;;1.90;;
78542;SDS011;67836;52.430;14.446;2023-05-10T09:18:50;5.80;;;2.20;;
78542;SDS011;67836;52.430;14.446;2023-05-10T09:21:40;3.33;;;1.50;;
78542;SDS011;67836;52.430;14.446;2023-05-10T09:24:27;3.55;;;1.90;;
78542;SDS011;67836;52.430;14.446;2023-05-10T09:27:12;3.90;;;1.88;;
78542;SDS011;67836;52.430;14.446;2023-05-10T09:29:56;3.28;;;1.75;;
78542;SDS011;67836;52.430;14.446;2023-05-10T09:32:42;4.38;;;2.20;;
78542;SDS011;67836;52.430;14.446;2023-05-10T09:35:28;3.15;;;1.40;;
78542;SDS011;67836;52.430;14.446;2023-05-10T09:38:13;2.35;;;1.30;;
78542;SDS011;67836;52.430;14.446;2023-05-10T09:40:58;2.92;;;1.50;;
78542;SDS011;67836;52.430;14.446;2023-05-10T09:43:42;3.00;;;1.50;;
78542;SDS011;67836;52.430;14.446;2023-05-10T09:46:26;2.78;;;1.63;;
78542;SDS011;67836;52.430;14.446;2023-05-10T09:49:11;4.18;;;1.73;;
78542;SDS011;67836;52.430;14.446;2023-05-10T09:54:52;4.05;;;1.92;;
78542;SDS011;67836;52.430;14.446;2023-05-10T09:57:37;4.53;;;1.85;;
78542;SDS011;67836;52.430;14.446;2023-05-10T10:00:21;4.80;;;2.17;;
78542;SDS011;67836;52.430;14.446;2023-05-10T10:03:05;3.65;;;1.60;;
78542;SDS011;67836;52.430;14.446;2023-05-10T10:05:50;3.10;;;1.60;;
78542;SDS011;67836;52.430;14.446;2023-05-10T10:08:34;4.32;;;1.80;;
78542;SDS011;67836;52.430;14.446;2023-05-10T10:11:19;3.63;;;1.63;;
78542;SDS011;67836;52.430;14.446;2023-05-10T10:14:03;3.60;;;1.88;;
78542;SDS011;67836;52.430;14.446;2023-05-10T10:16:48;3.17;;;1.45;;
78542;SDS011;67836;52.430;14.446;2023-05-10T10:19:33;4.22;;;1.70;;
78542;SDS011;67836;52.430;14.446;2023-05-10T10:22:18;2.63;;;1.50;;
78542;SDS011;67836;52.430;14.446;2023-05-10T10:25:03;2.47;;;1.30;;
78542;SDS011;67836;52.430;14.446;2023-05-10T10:30:48;4.13;;;1.83;;
78542;SDS011;67836;52.430;14.446;2023-05-10T10:33:36;3.28;;;1.60;;
78542;SDS011;67836;52.430;14.446;2023-05-10T10:36:24;3.00;;;1.55;;
78542;SDS011;67836;52.430;14.446;2023-05-10T10:39:10;3.03;;;1.63;;
78542;SDS011;67836;52.430;14.446;2023-05-10T10:41:55;4.03;;;1.70;;
78542;SDS011;67836;52.430;14.446;2023-05-10T10:44:40;4.88;;;1.92;;
78542;SDS011;67836;52.430;14.446;2023-05-10T10:47:27;2.97;;;1.50;;
78542;SDS011;67836;52.430;14.446;2023-05-10T10:50:14;3.22;;;1.75;;
78542;SDS011;67836;52.430;14.446;2023-05-10T10:53:09;4.15;;;2.05;;
78542;SDS011;67836;52.430;14.446;2023-05-10T10:56:12;3.25;;;1.50;;
78542;SDS011;67836;52.430;14.446;2023-05-10T10:59:05;4.30;;;1.85;;
78542;SDS011;67836;52.430;14.446;2023-05-10T11:01:51;2.10;;;1.42;;
78542;SDS011;67836;52.430;14.446;2023-05-10T11:04:41;3.50;;;1.60;;
78542;SDS011;67836;52.430;14.446;2023-05-10T11:07:30;4.75;;;1.67;;
78542;SDS011;67836;52.430;14.446;2023-05-10T11:10:19;3.35;;;1.65;;
78542;SDS011;67836;52.430;14.446;2023-05-10T11:13:09;5.53;;;1.98;;
78542;SDS011;67836;52.430;14.446;2023-05-10T11:15:53;4.40;;;1.90;;
78542;SDS011;67836;52.430;14.446;2023-05-10T11:18:37;4.20;;;1.83;;
78542;SDS011;67836;52.430;14.446;2023-05-10T11:21:22;3.83;;;1.80;;
78542;SDS011;67836;52.430;14.446;2023-05-10T11:24:12;5.00;;;1.45;;
78542;SDS011;67836;52.430;14.446;2023-05-10T11:26:56;3.05;;;2.03;;
78542;SDS011;67836;52.430;14.446;2023-05-10T11:29:41;3.00;;;1.60;;
78542;SDS011;67836;52.430;14.446;2023-05-10T11:32:26;3.53;;;2.00;;
78542;SDS011;67836;52.430;14.446;2023-05-10T11:35:11;4.00;;;1.50;;
78542;SDS011;67836;52.430;14.446;2023-05-10T11:37:55;4.15;;;1.67;;
78542;SDS011;67836;52.430;14.446;2023-05-10T11:40:40;3.17;;;1.67;;
78542;SDS011;67836;52.430;14.446;2023-05-10T11:43:24;4.78;;;2.38;;
78542;SDS011;67836;52.430;14.446;2023-05-10T11:46:12;3.72;;;2.00;;
78542;SDS011;67836;52.430;14.446;2023-05-10T11:48:59;4.95;;;2.17;;
78542;SDS011;67836;52.430;14.446;2023-05-10T11:51:45;3.53;;;1.85;;
78542;SDS011;67836;52.430;14.446;2023-05-10T11:54:29;2.35;;;1.38;;
78542;SDS011;67836;52.430;14.446;2023-05-10T11:57:14;3.38;;;1.58;;
78542;SDS011;67836;52.430;14.446;2023-05-10T11:59:58;2.58;;;1.65;;
78542;SDS011;67836;52.430;14.446;2023-05-10T12:02:42;5.20;;;2.40;;
78542;SDS011;67836;52.430;14.446;2023-05-10T12:05:27;3.83;;;2.05;;
78542;SDS011;67836;52.430;14.446;2023-05-10T12:08:14;3.72;;;1.75;;
78542;SDS011;67836;52.430;14.446;2023-05-10T12:11:06;2.92;;;1.63;;
78542;SDS011;67836;52.430;14.446;2023-05-10T12:13:51;5.28;;;2.08;;
78542;SDS011;67836;52.430;14.446;2023-05-10T12:16:35;4.38;;;1.98;;
78542;SDS011;67836;52.430;14.446;2023-05-10T12:19:19;3.67;;;1.65;;
78542;SDS011;67836;52.430;14.446;2023-05-10T12:22:07;2.67;;;1.50;;
78542;SDS011;67836;52.430;14.446;2023-05-10T12:24:51;3.63;;;1.83;;
78542;SDS011;67836;52.430;14.446;2023-05-10T12:27:35;3.38;;;1.85;;
78542;SDS011;67836;52.430;14.446;2023-05-10T12:30:23;2.80;;;1.63;;
78542;SDS011;67836;52.430;14.446;2023-05-10T12:33:12;3.50;;;2.03;;
78542;SDS011;67836;52.430;14.446;2023-05-10T12:35:58;2.70;;;1.50;;
78542;SDS011;67836;52.430;14.446;2023-05-10T12:38:44;4.55;;;1.85;;
78542;SDS011;67836;52.430;14.446;2023-05-10T12:41:31;3.53;;;1.80;;
78542;SDS011;67836;52.430;14.446;2023-05-10T12:44:15;4.60;;;2.15;;
78542;SDS011;67836;52.430;14.446;2023-05-10T12:46:59;4.47;;;1.90;;
78542;SDS011;67836;52.430;14.446;2023-05-10T12:49:43;2.95;;;1.70;;
78542;SDS011;67836;52.430;14.446;2023-05-10T12:52:28;3.58;;;2.10;;
78542;SDS011;67836;52.430;14.446;2023-05-10T12:55:12;4.45;;;2.22;;
78542;SDS011;67836;52.430;14.446;2023-05-10T12:57:56;3.03;;;1.38;;
78542;SDS011;67836;52.430;14.446;2023-05-10T13:00:40;5.00;;;1.95;;
78542;SDS011;67836;52.430;14.446;2023-05-10T13:03:24;4.97;;;1.70;;
78542;SDS011;67836;52.430;14.446;2023-05-10T13:06:08;4.30;;;1.80;;
78542;SDS011;67836;52.430;14.446;2023-05-10T13:08:52;2.05;;;1.17;;
78542;SDS011;67836;52.430;14.446;2023-05-10T13:11:36;3.90;;;1.58;;
78542;SDS011;67836;52.430;14.446;2023-05-10T13:14:21;4.32;;;2.10;;
78542;SDS011;67836;52.430;14.446;2023-05-10T13:17:05;3.53;;;1.75;;
78542;SDS011;67836;52.430;14.446;2023-05-10T13:19:49;2.58;;;1.45;;
78542;SDS011;67836;52.430;14.446;2023-05-10T13:22:33;4.03;;;1.95;;
78542;SDS011;67836;52.430;14.446;2023-05-10T13:25:17;3.53;;;1.80;;
78542;SDS011;67836;52.430;14.446;2023-05-10T13:28:02;4.32;;;1.75;;
78542;SDS011;67836;52.430;14.446;2023-05-10T13:30:45;3.08;;;1.60;;
78542;SDS011;67836;52.430;14.446;2023-05-10T13:33:30;4.10;;;1.95;;
78542;SDS011;67836;52.430;14.446;2023-05-10T13:36:14;4.72;;;2.28;;
78542;SDS011;67836;52.430;14.446;2023-05-10T13:38:58;4.22;;;1.88;;
78542;SDS011;67836;52.430;14.446;2023-05-10T13:41:42;8.10;;;2.60;;
78542;SDS011;67836;52.430;14.446;2023-05-10T13:44:26;5.63;;;2.40;;
78542;SDS011;67836;52.430;14.446;2023-05-10T13:47:10;4.55;;;2.15;;
78542;SDS011;67836;52.430;14.446;2023-05-10T13:49:55;3.85;;;2.08;;
78542;SDS011;67836;52.430;14.446;2023-05-10T13:52:39;5.95;;;1.92;;
78542;SDS011;67836;52.430;14.446;2023-05-10T13:55:23;3.85;;;2.15;;
78542;SDS011;67836;52.430;14.446;2023-05-10T13:58:07;3.92;;;2.15;;
78542;SDS011;67836;52.430;14.446;2023-05-10T14:00:51;5.47;;;1.85;;
78542;SDS011;67836;52.430;14.446;2023-05-10T14:03:35;4.18;;;2.00;;
78542;SDS011;67836;52.430;14.446;2023-05-10T14:06:19;4.25;;;2.05;;
78542;SDS011;67836;52.430;14.446;2023-05-10T14:09:04;3.95;;;1.73;;
78542;SDS011;67836;52.430;14.446;2023-05-10T14:11:48;4.43;;;2.28;;
78542;SDS011;67836;52.430;14.446;2023-05-10T14:14:32;4.57;;;2.30;;
78542;SDS011;67836;52.430;14.446;2023-05-10T14:17:16;4.10;;;2.05;;
78542;SDS011;67836;52.430;14.446;2023-05-10T14:20:00;4.70;;;1.80;;
78542;SDS011;67836;52.430;14.446;2023-05-10T14:22:44;4.15;;;2.10;;
78542;SDS011;67836;52.430;14.446;2023-05-10T14:25:28;6.65;;;2.35;;
78542;SDS011;67836;52.430;14.446;2023-05-10T14:28:12;5.15;;;2.15;;
78542;SDS011;67836;52.430;14.446;2023-05-10T14:30:56;5.63;;;1.92;;
78542;SDS011;67836;52.430;14.446;2023-05-10T14:33:41;4.40;;;2.28;;
78542;SDS011;67836;52.430;14.446;2023-05-10T14:36:26;4.88;;;2.08;;
78542;SDS011;67836;52.430;14.446;2023-05-10T14:39:10;4.32;;;2.20;;
78542;SDS011;67836;52.430;14.446;2023-05-10T14:41:56;4.90;;;2.10;;
78542;SDS011;67836;52.430;14.446;2023-05-10T14:44:40;3.67;;;2.30;;
78542;SDS011;67836;52.430;14.446;2023-05-10T14:47:25;5.40;;;2.15;;
78542;SDS011;67836;52.430;14.446;2023-05-10T14:50:09;4.15;;;2.08;;
78542;SDS011;67836;52.430;14.446;2023-05-10T14:52:53;5.05;;;2.40;;
78542;SDS011;67836;52.430;14.446;2023-05-10T14:55:37;4.32;;;2.13;;
78542;SDS011;67836;52.430;14.446;2023-05-10T14:58:22;6.70;;;3.28;;
78542;SDS011;67836;52.430;14.446;2023-05-10T15:01:07;5.90;;;2.58;;
78542;SDS011;67836;52.430;14.446;2023-05-10T15:03:51;3.72;;;1.83;;
78542;SDS011;67836;52.430;14.446;2023-05-10T15:06:35;6.80;;;2.75;;
78542;SDS011;67836;52.430;14.446;2023-05-10T15:09:19;7.07;;;2.78;;
78542;SDS011;67836;52.430;14.446;2023-05-10T15:12:03;4.55;;;2.20;;
78542;SDS011;67836;52.430;14.446;2023-05-10T15:14:47;5.38;;;2.42;;
78542;SDS011;67836;52.430;14.446;2023-05-10T15:17:31;3.88;;;2.15;;
78542;SDS011;67836;52.430;14.446;2023-05-10T15:20:15;4.82;;;1.65;;
78542;SDS011;67836;52.430;14.446;2023-05-10T15:23:00;4.63;;;1.67;;
78542;SDS011;67836;52.430;14.446;2023-05-10T15:25:44;6.80;;;2.72;;
78542;SDS011;67836;52.430;14.446;2023-05-10T15:28:28;4.63;;;2.30;;
78542;SDS011;67836;52.430;14.446;2023-05-10T15:31:13;4.57;;;2.30;;
78542;SDS011;67836;52.430;14.446;2023-05-10T15:33:57;4.70;;;2.35;;
78542;SDS011;67836;52.430;14.446;2023-05-10T15:36:42;4.78;;;2.33;;
78542;SDS011;67836;52.430;14.446;2023-05-10T15:39:26;4.63;;;2.13;;
78542;SDS011;67836;52.430;14.446;2023-05-10T15:42:10;5.03;;;2.35;;
78542;SDS011;67836;52.430;14.446;2023-05-10T15:44:54;6.22;;;2.33;;
78542;SDS011;67836;52.430;14.446;2023-05-10T15:47:38;2.70;;;1.67;;
78542;SDS011;67836;52.430;14.446;2023-05-10T15:50:23;4.30;;;2.17;;
78542;SDS011;67836;52.430;14.446;2023-05-10T15:53:07;3.72;;;1.55;;
78542;SDS011;67836;52.430;14.446;2023-05-10T15:55:51;5.03;;;2.20;;
78542;SDS011;67836;52.430;14.446;2023-05-10T15:58:35;6.15;;;2.53;;
78542;SDS011;67836;52.430;14.446;2023-05-10T16:01:19;6.22;;;2.60;;
78542;SDS011;67836;52.430;14.446;2023-05-10T16:04:04;6.82;;;2.38;;
78542;SDS011;67836;52.430;14.446;2023-05-10T16:06:48;7.10;;;2.65;;
78542;SDS011;67836;52.430;14.446;2023-05-10T16:09:32;5.75;;;2.65;;
78542;SDS011;67836;52.430;14.446;2023-05-10T16:12:16;3.95;;;2.33;;
78542;SDS011;67836;52.430;14.446;2023-05-10T16:15:00;4.57;;;2.20;;
78542;SDS011;67836;52.430;14.446;2023-05-10T16:17:44;4.85;;;2.50;;
78542;SDS011;67836;52.430;14.446;2023-05-10T16:20:28;4.32;;;2.30;;
78542;SDS011;67836;52.430;14.446;2023-05-10T16:23:12;3.97;;;2.10;;
78542;SDS011;67836;52.430;14.446;2023-05-10T16:25:57;4.65;;;1.77;;
78542;SDS011;67836;52.430;14.446;2023-05-10T16:28:41;4.32;;;2.30;;
78542;SDS011;67836;52.430;14.446;2023-05-10T16:31:25;6.47;;;2.28;;
78542;SDS011;67836;52.430;14.446;2023-05-10T16:34:10;4.47;;;2.17;;
78542;SDS011;67836;52.430;14.446;2023-05-10T16:36:54;7.10;;;2.80;;
78542;SDS011;67836;52.430;14.446;2023-05-10T16:39:38;3.75;;;2.33;;
78542;SDS011;67836;52.430;14.446;2023-05-10T16:42:22;6.15;;;3.00;;
78542;SDS011;67836;52.430;14.446;2023-05-10T16:45:07;6.32;;;2.70;;
78542;SDS011;67836;52.430;14.446;2023-05-10T16:47:51;5.78;;;2.97;;
78542;SDS011;67836;52.430;14.446;2023-05-10T16:50:41;4.45;;;2.30;;
78542;SDS011;67836;52.430;14.446;2023-05-10T16:53:26;5.68;;;2.65;;